Terminal Aerodrome Forecast
Issued by NWS Missoula, MT

Home | Current Version | Previous Version | Text Only | Print | Product List | Glossary On
Versions: 1 2 3 4 5 6 7 8 9 10 11 12 13 14 15 16 17 18
000
FTUS45 KMSO 261434 AAB
TAFGPI
TAF AMD
KGPI 261434Z 2615/2712 08003KT P6SM BKN100
     FM261800 17007KT P6SM VCSH BKN090
     FM262200 34007KT P6SM -SHRA OVC040
     FM270200 VRB05KT P6SM SCT040 OVC080=

USA.gov is the U.S. government's official web portal to all federal, state and local government web resources and services.